Bowerston, Ohio
Current Conditions -  °F | °C
As of 7:53 AM on Thursday 27 Nov 2014 (Local Time) from KPHD Reporting Station
Haze Haze  
Wind Chill: 32°   Ceiling: 1000
Heat Index: 32°   Visibility: 5mi
Dew Point: 27°   Wind: 0mph
Humidity: 82%   Direction: NA
Pressure: 30.08"   Gusts: NA
Location:  40.43°N, 81.19°W
Report Text: KPHD 271253Z AUTO 00000KT 5SM HZ OVC010 00/M03 A3008 RMK AO2 SLP193 T00001028
Loading
Personal Weather Stations






























Interactive Weather Map New forecast layout! Learn more

10-Day Weather Forecast

Advertisements
Track Severe Weather on mobile